sensor_id;sensor_type;location;lat;lon;timestamp;pressure;altitude;pressure_sealevel;temperature;humidity
46768;BME280;69007;48.978;18.066;2023-11-18T00:01:46;97562.31;;;3.46;99.63
46768;BME280;69007;48.978;18.066;2023-11-18T00:04:11;97571.50;;;3.38;100.00
46768;BME280;69007;48.978;18.066;2023-11-18T00:06:45;97594.00;;;3.44;100.00
46768;BME280;69007;48.978;18.066;2023-11-18T00:09:11;97602.41;;;3.54;100.00
46768;BME280;69007;48.978;18.066;2023-11-18T00:11:40;97567.84;;;3.32;100.00
46768;BME280;69007;48.978;18.066;2023-11-18T00:14:07;97606.31;;;3.58;100.00
46768;BME280;69007;48.978;18.066;2023-11-18T00:16:32;97603.00;;;3.56;100.00
46768;BME280;69007;48.978;18.066;2023-11-18T00:18:59;97609.22;;;3.57;100.00
46768;BME280;69007;48.978;18.066;2023-11-18T00:21:25;97619.19;;;3.49;100.00
46768;BME280;69007;48.978;18.066;2023-11-18T00:23:50;97584.34;;;3.36;100.00
46768;BME280;69007;48.978;18.066;2023-11-18T00:26:16;97582.16;;;3.26;100.00
46768;BME280;69007;48.978;18.066;2023-11-18T00:28:41;97619.03;;;3.44;100.00
46768;BME280;69007;48.978;18.066;2023-11-18T00:31:06;97622.78;;;3.43;100.00
46768;BME280;69007;48.978;18.066;2023-11-18T00:33:32;97625.00;;;3.46;100.00
46768;BME280;69007;48.978;18.066;2023-11-18T00:35:58;97644.03;;;3.52;100.00
46768;BME280;69007;48.978;18.066;2023-11-18T00:38:29;97605.44;;;3.39;100.00
46768;BME280;69007;48.978;18.066;2023-11-18T00:40:56;97618.38;;;3.49;100.00
46768;BME280;69007;48.978;18.066;2023-11-18T00:43:21;97623.72;;;3.56;100.00
46768;BME280;69007;48.978;18.066;2023-11-18T00:45:47;97592.69;;;3.28;100.00
46768;BME280;69007;48.978;18.066;2023-11-18T00:48:13;97608.94;;;3.40;100.00
46768;BME280;69007;48.978;18.066;2023-11-18T00:50:40;97636.25;;;3.43;100.00
46768;BME280;69007;48.978;18.066;2023-11-18T00:53:05;97629.19;;;3.42;100.00
46768;BME280;69007;48.978;18.066;2023-11-18T00:55:31;97605.06;;;3.36;100.00
46768;BME280;69007;48.978;18.066;2023-11-18T00:57:57;97593.75;;;3.27;100.00
46768;BME280;69007;48.978;18.066;2023-11-18T01:00:23;97634.97;;;3.46;100.00
46768;BME280;69007;48.978;18.066;2023-11-18T01:02:52;97639.81;;;3.37;100.00
46768;BME280;69007;48.978;18.066;2023-11-18T01:05:19;97601.66;;;3.22;100.00
46768;BME280;69007;48.978;18.066;2023-11-18T01:07:44;97603.66;;;3.26;100.00
46768;BME280;69007;48.978;18.066;2023-11-18T01:10:10;97638.72;;;3.45;100.00
46768;BME280;69007;48.978;18.066;2023-11-18T01:12:36;97642.38;;;3.50;100.00
46768;BME280;69007;48.978;18.066;2023-11-18T01:15:02;97634.16;;;3.45;100.00
46768;BME280;69007;48.978;18.066;2023-11-18T01:17:28;97608.00;;;3.27;100.00
46768;BME280;69007;48.978;18.066;2023-11-18T01:19:55;97634.81;;;3.41;100.00
46768;BME280;69007;48.978;18.066;2023-11-18T01:22:20;97604.56;;;3.20;100.00
46768;BME280;69007;48.978;18.066;2023-11-18T01:24:46;97592.41;;;3.11;100.00
46768;BME280;69007;48.978;18.066;2023-11-18T01:27:12;97606.41;;;3.20;100.00
46768;BME280;69007;48.978;18.066;2023-11-18T01:29:38;97618.97;;;3.26;100.00
46768;BME280;69007;48.978;18.066;2023-11-18T01:32:05;97610.00;;;3.13;100.00
46768;BME280;69007;48.978;18.066;2023-11-18T01:34:35;97591.66;;;3.04;100.00
46768;BME280;69007;48.978;18.066;2023-11-18T01:37:01;97595.53;;;3.08;100.00
46768;BME280;69007;48.978;18.066;2023-11-18T01:39:27;97625.88;;;3.15;100.00
46768;BME280;69007;48.978;18.066;2023-11-18T01:41:52;97621.59;;;3.07;100.00
46768;BME280;69007;48.978;18.066;2023-11-18T01:44:18;97595.84;;;2.93;100.00
46768;BME280;69007;48.978;18.066;2023-11-18T01:46:45;97619.13;;;3.06;100.00
46768;BME280;69007;48.978;18.066;2023-11-18T01:49:12;97617.44;;;3.11;100.00
46768;BME280;69007;48.978;18.066;2023-11-18T01:51:42;97624.91;;;3.09;100.00
46768;BME280;69007;48.978;18.066;2023-11-18T01:54:09;97594.81;;;2.94;100.00
46768;BME280;69007;48.978;18.066;2023-11-18T01:56:41;97606.50;;;3.06;100.00
46768;BME280;69007;48.978;18.066;2023-11-18T01:59:08;97623.66;;;3.12;100.00
46768;BME280;69007;48.978;18.066;2023-11-18T02:01:35;97626.13;;;3.13;100.00
46768;BME280;69007;48.978;18.066;2023-11-18T02:04:01;97628.56;;;3.15;100.00
46768;BME280;69007;48.978;18.066;2023-11-18T02:06:27;97637.47;;;3.16;100.00
46768;BME280;69007;48.978;18.066;2023-11-18T02:08:53;97602.47;;;2.97;100.00
46768;BME280;69007;48.978;18.066;2023-11-18T02:11:29;97627.91;;;3.20;100.00
46768;BME280;69007;48.978;18.066;2023-11-18T02:13:58;97617.00;;;3.14;100.00
46768;BME280;69007;48.978;18.066;2023-11-18T02:16:28;97631.03;;;3.17;100.00
46768;BME280;69007;48.978;18.066;2023-11-18T02:18:53;97619.69;;;3.14;100.00
46768;BME280;69007;48.978;18.066;2023-11-18T02:21:19;97622.03;;;3.04;100.00
46768;BME280;69007;48.978;18.066;2023-11-18T02:23:48;97647.81;;;3.19;100.00
46768;BME280;69007;48.978;18.066;2023-11-18T02:26:21;97617.47;;;3.05;100.00
46768;BME280;69007;48.978;18.066;2023-11-18T02:28:46;97658.09;;;3.28;100.00
46768;BME280;69007;48.978;18.066;2023-11-18T02:31:16;97655.78;;;3.32;100.00
46768;BME280;69007;48.978;18.066;2023-11-18T02:34:01;97655.78;;;3.32;100.00
46768;BME280;69007;48.978;18.066;2023-11-18T02:36:34;97651.81;;;3.35;100.00
46768;BME280;69007;48.978;18.066;2023-11-18T02:41:51;97612.06;;;3.11;100.00
46768;BME280;69007;48.978;18.066;2023-11-18T02:44:18;97632.44;;;3.26;100.00
46768;BME280;69007;48.978;18.066;2023-11-18T02:46:45;97651.91;;;3.46;100.00
46768;BME280;69007;48.978;18.066;2023-11-18T02:49:11;97673.63;;;3.52;100.00
46768;BME280;69007;48.978;18.066;2023-11-18T02:51:37;97675.47;;;3.51;100.00
46768;BME280;69007;48.978;18.066;2023-11-18T02:54:07;97670.19;;;3.63;100.00
46768;BME280;69007;48.978;18.066;2023-11-18T02:56:36;97660.72;;;3.60;100.00
46768;BME280;69007;48.978;18.066;2023-11-18T02:59:01;97668.13;;;3.65;100.00
46768;BME280;69007;48.978;18.066;2023-11-18T03:01:30;97658.84;;;3.61;100.00
46768;BME280;69007;48.978;18.066;2023-11-18T03:03:55;97669.72;;;3.73;100.00
46768;BME280;69007;48.978;18.066;2023-11-18T03:06:21;97673.47;;;3.72;100.00
46768;BME280;69007;48.978;18.066;2023-11-18T03:08:46;97666.19;;;3.72;100.00
46768;BME280;69007;48.978;18.066;2023-11-18T03:11:11;97673.09;;;3.68;100.00
46768;BME280;69007;48.978;18.066;2023-11-18T03:13:37;97644.03;;;3.52;100.00
46768;BME280;69007;48.978;18.066;2023-11-18T03:16:06;97677.50;;;3.81;100.00
46768;BME280;69007;48.978;18.066;2023-11-18T03:18:32;97657.09;;;3.73;100.00
46768;BME280;69007;48.978;18.066;2023-11-18T03:20:57;97687.56;;;3.92;100.00
46768;BME280;69007;48.978;18.066;2023-11-18T03:23:25;97678.44;;;3.93;100.00
46768;BME280;69007;48.978;18.066;2023-11-18T03:25:50;97690.91;;;3.87;100.00
46768;BME280;69007;48.978;18.066;2023-11-18T03:28:16;97682.22;;;3.85;100.00
46768;BME280;69007;48.978;18.066;2023-11-18T03:30:42;97666.53;;;3.82;100.00
46768;BME280;69007;48.978;18.066;2023-11-18T03:33:07;97701.06;;;3.85;100.00
46768;BME280;69007;48.978;18.066;2023-11-18T03:35:36;97690.53;;;3.84;100.00
46768;BME280;69007;48.978;18.066;2023-11-18T03:38:02;97666.19;;;3.72;100.00
46768;BME280;69007;48.978;18.066;2023-11-18T03:40:28;97689.72;;;3.83;100.00
46768;BME280;69007;48.978;18.066;2023-11-18T03:42:54;97692.78;;;3.87;100.00
46768;BME280;69007;48.978;18.066;2023-11-18T03:45:19;97667.44;;;3.76;100.00
46768;BME280;69007;48.978;18.066;2023-11-18T03:47:46;97664.31;;;3.73;100.00
46768;BME280;69007;48.978;18.066;2023-11-18T03:50:12;97658.78;;;3.67;100.00
46768;BME280;69007;48.978;18.066;2023-11-18T03:52:38;97687.41;;;3.87;100.00
46768;BME280;69007;48.978;18.066;2023-11-18T03:55:04;97689.44;;;3.92;100.00
46768;BME280;69007;48.978;18.066;2023-11-18T03:57:29;97697.94;;;3.88;100.00
46768;BME280;69007;48.978;18.066;2023-11-18T03:59:55;97698.75;;;3.89;100.00
46768;BME280;69007;48.978;18.066;2023-11-18T04:02:20;97675.59;;;3.63;100.00
46768;BME280;69007;48.978;18.066;2023-11-18T04:04:46;97704.63;;;3.79;100.00
46768;BME280;69007;48.978;18.066;2023-11-18T04:07:11;97674.19;;;3.60;100.00
46768;BME280;69007;48.978;18.066;2023-11-18T04:09:36;97697.03;;;3.76;100.00
46768;BME280;69007;48.978;18.066;2023-11-18T04:12:02;97660.56;;;3.55;100.00
46768;BME280;69007;48.978;18.066;2023-11-18T04:14:28;97701.34;;;3.77;100.00
46768;BME280;69007;48.978;18.066;2023-11-18T04:16:53;97711.84;;;3.85;100.00
46768;BME280;69007;48.978;18.066;2023-11-18T04:19:20;97719.53;;;3.82;100.00
46768;BME280;69007;48.978;18.066;2023-11-18T04:21:47;97714.09;;;3.88;100.00
46768;BME280;69007;48.978;18.066;2023-11-18T04:24:14;97733.00;;;3.82;100.00
46768;BME280;69007;48.978;18.066;2023-11-18T04:26:40;97685.75;;;3.61;100.00
46768;BME280;69007;48.978;18.066;2023-11-18T04:29:05;97705.97;;;3.70;100.00
46768;BME280;69007;48.978;18.066;2023-11-18T04:31:31;97707.81;;;3.69;100.00
46768;BME280;69007;48.978;18.066;2023-11-18T04:33:56;97732.47;;;3.73;100.00
46768;BME280;69007;48.978;18.066;2023-11-18T04:36:21;97715.25;;;3.74;100.00
46768;BME280;69007;48.978;18.066;2023-11-18T04:38:47;97730.59;;;3.74;100.00
46768;BME280;69007;48.978;18.066;2023-11-18T04:41:14;97717.94;;;3.74;100.00
46768;BME280;69007;48.978;18.066;2023-11-18T04:43:39;97712.41;;;3.69;100.00
46768;BME280;69007;48.978;18.066;2023-11-18T04:46:07;97726.19;;;3.79;100.00
46768;BME280;69007;48.978;18.066;2023-11-18T04:48:33;97724.97;;;3.75;100.00
46768;BME280;69007;48.978;18.066;2023-11-18T04:50:59;97734.25;;;3.79;100.00
46768;BME280;69007;48.978;18.066;2023-11-18T04:53:25;97723.75;;;3.71;100.00
46768;BME280;69007;48.978;18.066;2023-11-18T04:55:51;97720.19;;;3.77;100.00
46768;BME280;69007;48.978;18.066;2023-11-18T04:58:16;97726.19;;;3.79;100.00
46768;BME280;69007;48.978;18.066;2023-11-18T05:00:42;97737.94;;;3.85;100.00
46768;BME280;69007;48.978;18.066;2023-11-18T05:03:08;97702.44;;;3.69;100.00
46768;BME280;69007;48.978;18.066;2023-11-18T05:05:37;97730.47;;;3.87;100.00
46768;BME280;69007;48.978;18.066;2023-11-18T05:08:06;97710.25;;;3.78;100.00
46768;BME280;69007;48.978;18.066;2023-11-18T05:10:33;97728.00;;;3.85;100.00
46768;BME280;69007;48.978;18.066;2023-11-18T05:12:58;97721.41;;;3.81;100.00
46768;BME280;69007;48.978;18.066;2023-11-18T05:15:24;97688.00;;;3.64;100.00
46768;BME280;69007;48.978;18.066;2023-11-18T05:17:53;97705.38;;;3.68;100.00
46768;BME280;69007;48.978;18.066;2023-11-18T05:20:19;97725.69;;;3.64;100.00
46768;BME280;69007;48.978;18.066;2023-11-18T05:22:45;97702.44;;;3.44;100.00
46768;BME280;69007;48.978;18.066;2023-11-18T05:25:10;97723.91;;;3.51;100.00
46768;BME280;69007;48.978;18.066;2023-11-18T05:27:37;97697.53;;;3.35;100.00
46768;BME280;69007;48.978;18.066;2023-11-18T05:30:02;97717.38;;;3.40;100.00
46768;BME280;69007;48.978;18.066;2023-11-18T05:32:28;97712.25;;;3.32;100.00
46768;BME280;69007;48.978;18.066;2023-11-18T05:34:54;97710.84;;;3.23;100.00
46768;BME280;69007;48.978;18.066;2023-11-18T05:37:20;97719.72;;;3.23;100.00
46768;BME280;69007;48.978;18.066;2023-11-18T05:39:46;97708.41;;;3.14;100.00
46768;BME280;69007;48.978;18.066;2023-11-18T05:42:14;97720.22;;;3.13;100.00
46768;BME280;69007;48.978;18.066;2023-11-18T05:44:40;97717.28;;;3.15;100.00
46768;BME280;69007;48.978;18.066;2023-11-18T05:47:08;97701.06;;;2.97;100.00
46768;BME280;69007;48.978;18.066;2023-11-18T05:49:34;97690.34;;;2.90;100.00
46768;BME280;69007;48.978;18.066;2023-11-18T05:51:59;97733.25;;;3.10;100.00
46768;BME280;69007;48.978;18.066;2023-11-18T05:54:25;97729.16;;;3.07;100.00
46768;BME280;69007;48.978;18.066;2023-11-18T05:56:51;97725.84;;;3.05;100.00
46768;BME280;69007;48.978;18.066;2023-11-18T05:59:16;97732.88;;;3.06;100.00
46768;BME280;69007;48.978;18.066;2023-11-18T06:01:41;97728.56;;;2.99;100.00
46768;BME280;69007;48.978;18.066;2023-11-18T06:04:07;97733.13;;;2.98;100.00
46768;BME280;69007;48.978;18.066;2023-11-18T06:06:35;97748.41;;;3.04;100.00
46768;BME280;69007;48.978;18.066;2023-11-18T06:09:03;97745.28;;;3.07;100.00
46768;BME280;69007;48.978;18.066;2023-11-18T06:11:35;97723.00;;;2.93;100.00
46768;BME280;69007;48.978;18.066;2023-11-18T06:14:01;97747.53;;;3.10;100.00
46768;BME280;69007;48.978;18.066;2023-11-18T06:16:27;97714.91;;;3.00;100.00
46768;BME280;69007;48.978;18.066;2023-11-18T06:18:53;97759.91;;;3.18;100.00
46768;BME280;69007;48.978;18.066;2023-11-18T06:21:24;97748.50;;;3.23;100.00
46768;BME280;69007;48.978;18.066;2023-11-18T06:23:53;97752.84;;;3.24;100.00
46768;BME280;69007;48.978;18.066;2023-11-18T06:26:20;97763.34;;;3.32;100.00
46768;BME280;69007;48.978;18.066;2023-11-18T06:28:48;97726.63;;;3.12;100.00
46768;BME280;69007;48.978;18.066;2023-11-18T06:31:16;97764.13;;;3.39;100.00
46768;BME280;69007;48.978;18.066;2023-11-18T06:33:43;97777.13;;;3.49;100.00
46768;BME280;69007;48.978;18.066;2023-11-18T06:38:42;97777.72;;;3.51;100.00
46768;BME280;69007;48.978;18.066;2023-11-18T06:41:09;97783.28;;;3.56;100.00
46768;BME280;69007;48.978;18.066;2023-11-18T06:43:37;97781.00;;;3.60;100.00
46768;BME280;69007;48.978;18.066;2023-11-18T06:46:23;97787.97;;;3.67;100.00
46768;BME280;69007;48.978;18.066;2023-11-18T06:48:50;97786.16;;;4.37;100.00
46768;BME280;69007;48.978;18.066;2023-11-18T06:51:22;97775.81;;;4.96;94.49
46768;BME280;69007;48.978;18.066;2023-11-18T06:53:51;97790.19;;;4.90;95.98
46768;BME280;69007;48.978;18.066;2023-11-18T06:56:17;97775.91;;;4.71;96.78
46768;BME280;69007;48.978;18.066;2023-11-18T06:58:43;97780.91;;;4.67;94.60
46768;BME280;69007;48.978;18.066;2023-11-18T07:01:12;97810.66;;;4.79;97.27
46768;BME280;69007;48.978;18.066;2023-11-18T07:03:38;97763.59;;;5.12;93.60
46768;BME280;69007;48.978;18.066;2023-11-18T07:06:04;97802.13;;;6.45;89.79
46768;BME280;69007;48.978;18.066;2023-11-18T07:08:31;97810.00;;;9.38;78.12
46768;BME280;69007;48.978;18.066;2023-11-18T07:10:56;97789.53;;;12.50;64.76
46768;BME280;69007;48.978;18.066;2023-11-18T07:13:22;97804.81;;;14.07;60.02
46768;BME280;69007;48.978;18.066;2023-11-18T07:15:50;97826.16;;;14.10;57.89
46768;BME280;69007;48.978;18.066;2023-11-18T07:18:15;97809.34;;;15.44;57.87
46768;BME280;69007;48.978;18.066;2023-11-18T07:20:41;97834.91;;;17.11;51.86
46768;BME280;69007;48.978;18.066;2023-11-18T07:23:07;97847.03;;;17.93;46.60
46768;BME280;69007;48.978;18.066;2023-11-18T07:25:34;97841.06;;;18.28;47.50
46768;BME280;69007;48.978;18.066;2023-11-18T07:27:59;97832.47;;;17.51;45.22
46768;BME280;69007;48.978;18.066;2023-11-18T07:30:25;97842.56;;;17.28;47.20
46768;BME280;69007;48.978;18.066;2023-11-18T07:32:50;97843.25;;;15.97;49.22
46768;BME280;69007;48.978;18.066;2023-11-18T07:35:16;97838.09;;;15.47;49.58
46768;BME280;69007;48.978;18.066;2023-11-18T07:37:43;97816.28;;;14.14;52.46
46768;BME280;69007;48.978;18.066;2023-11-18T07:40:09;97839.97;;;13.90;55.04
46768;BME280;69007;48.978;18.066;2023-11-18T07:42:37;97841.00;;;13.99;53.40
46768;BME280;69007;48.978;18.066;2023-11-18T07:45:03;97849.75;;;16.25;49.44
46768;BME280;69007;48.978;18.066;2023-11-18T07:47:30;97857.19;;;15.81;49.91
46768;BME280;69007;48.978;18.066;2023-11-18T07:49:58;97851.19;;;12.97;54.64
46768;BME280;69007;48.978;18.066;2023-11-18T07:52:25;97842.00;;;11.05;58.93
46768;BME280;69007;48.978;18.066;2023-11-18T07:54:52;97841.41;;;9.73;63.98
46768;BME280;69007;48.978;18.066;2023-11-18T07:57:17;97838.28;;;8.98;67.38
46768;BME280;69007;48.978;18.066;2023-11-18T07:59:43;97842.84;;;8.93;68.80
46768;BME280;69007;48.978;18.066;2023-11-18T08:02:08;97844.50;;;8.77;68.14
46768;BME280;69007;48.978;18.066;2023-11-18T08:04:36;97848.06;;;8.15;71.28
46768;BME280;69007;48.978;18.066;2023-11-18T08:07:01;97834.13;;;7.36;73.45
46768;BME280;69007;48.978;18.066;2023-11-18T08:09:29;97815.97;;;6.85;75.95
46768;BME280;69007;48.978;18.066;2023-11-18T08:11:56;97848.69;;;6.71;77.73
46768;BME280;69007;48.978;18.066;2023-11-18T08:14:22;97849.38;;;6.55;79.53
46768;BME280;69007;48.978;18.066;2023-11-18T08:16:47;97810.81;;;6.24;81.93
46768;BME280;69007;48.978;18.066;2023-11-18T08:19:12;97824.31;;;6.12;82.54
46768;BME280;69007;48.978;18.066;2023-11-18T08:21:38;97806.00;;;6.26;82.31
46768;BME280;69007;48.978;18.066;2023-11-18T08:24:06;97822.44;;;6.36;83.43
46768;BME280;69007;48.978;18.066;2023-11-18T08:26:33;97837.97;;;7.81;76.25
46768;BME280;69007;48.978;18.066;2023-11-18T08:28:58;97809.06;;;9.06;70.77
46768;BME280;69007;48.978;18.066;2023-11-18T08:31:23;97835.00;;;8.11;74.70
46768;BME280;69007;48.978;18.066;2023-11-18T08:33:49;97819.59;;;7.14;78.56
46768;BME280;69007;48.978;18.066;2023-11-18T08:36:16;97841.53;;;6.77;82.04
46768;BME280;69007;48.978;18.066;2023-11-18T08:38:42;97845.44;;;6.15;85.59
46768;BME280;69007;48.978;18.066;2023-11-18T08:41:09;97829.56;;;5.77;88.30
46768;BME280;69007;48.978;18.066;2023-11-18T08:43:34;97848.06;;;5.61;89.86
46768;BME280;69007;48.978;18.066;2023-11-18T08:46:00;97842.84;;;5.29;95.39
46768;BME280;69007;48.978;18.066;2023-11-18T08:48:26;97806.13;;;4.91;96.67
46768;BME280;69007;48.978;18.066;2023-11-18T08:50:51;97838.34;;;4.86;97.36
46768;BME280;69007;48.978;18.066;2023-11-18T08:53:17;97870.63;;;4.74;98.74
46768;BME280;69007;48.978;18.066;2023-11-18T08:55:44;97872.81;;;4.84;99.33
46768;BME280;69007;48.978;18.066;2023-11-18T08:58:22;97877.47;;;4.95;99.49
46768;BME280;69007;48.978;18.066;2023-11-18T09:00:52;97860.59;;;4.82;98.25
46768;BME280;69007;48.978;18.066;2023-11-18T09:03:20;97895.91;;;4.98;100.00
46768;BME280;69007;48.978;18.066;2023-11-18T09:06:01;97888.91;;;4.91;99.87
46768;BME280;69007;48.978;18.066;2023-11-18T09:08:37;97875.59;;;5.14;100.00
46768;BME280;69007;48.978;18.066;2023-11-18T09:11:09;97879.53;;;5.67;97.11
46768;BME280;69007;48.978;18.066;2023-11-18T09:13:46;97887.53;;;6.35;92.84
46768;BME280;69007;48.978;18.066;2023-11-18T09:16:19;97852.06;;;5.89;93.52
46768;BME280;69007;48.978;18.066;2023-11-18T09:18:47;97875.97;;;6.04;94.15
46768;BME280;69007;48.978;18.066;2023-11-18T09:21:13;97865.31;;;6.21;93.73
46768;BME280;69007;48.978;18.066;2023-11-18T09:23:48;97900.91;;;6.18;93.44
46768;BME280;69007;48.978;18.066;2023-11-18T09:26:14;97898.88;;;6.43;93.94
46768;BME280;69007;48.978;18.066;2023-11-18T09:28:40;97901.38;;;6.92;91.55
46768;BME280;69007;48.978;18.066;2023-11-18T09:31:05;97911.31;;;7.39;90.32
46768;BME280;69007;48.978;18.066;2023-11-18T09:33:33;97900.63;;;7.44;89.41
46768;BME280;69007;48.978;18.066;2023-11-18T09:38:32;97886.69;;;7.64;89.55
46768;BME280;69007;48.978;18.066;2023-11-18T09:40:59;97906.28;;;7.31;87.83
46768;BME280;69007;48.978;18.066;2023-11-18T09:43:31;97909.34;;;6.52;90.88
46768;BME280;69007;48.978;18.066;2023-11-18T09:46:17;97916.56;;;5.97;91.22
46768;BME280;69007;48.978;18.066;2023-11-18T09:51:22;97917.63;;;5.78;94.27
46768;BME280;69007;48.978;18.066;2023-11-18T09:53:53;97881.28;;;6.11;92.74
46768;BME280;69007;48.978;18.066;2023-11-18T09:59:05;97896.91;;;6.98;88.72
46768;BME280;69007;48.978;18.066;2023-11-18T10:01:35;97910.88;;;7.30;88.56
46768;BME280;69007;48.978;18.066;2023-11-18T10:04:05;97921.44;;;7.44;88.53
46768;BME280;69007;48.978;18.066;2023-11-18T10:06:34;97908.75;;;7.44;87.66
46768;BME280;69007;48.978;18.066;2023-11-18T10:09:02;97932.72;;;7.64;88.49
46768;BME280;69007;48.978;18.066;2023-11-18T10:11:41;97924.19;;;7.32;85.65
46768;BME280;69007;48.978;18.066;2023-11-18T10:14:06;97922.78;;;7.41;87.72
46768;BME280;69007;48.978;18.066;2023-11-18T10:16:34;97895.22;;;7.32;84.60
46768;BME280;69007;48.978;18.066;2023-11-18T10:18:59;97929.31;;;7.69;83.91
46768;BME280;69007;48.978;18.066;2023-11-18T10:21:35;97934.66;;;7.92;81.50
46768;BME280;69007;48.978;18.066;2023-11-18T10:24:08;97908.13;;;7.94;82.12
46768;BME280;69007;48.978;18.066;2023-11-18T10:26:40;97916.09;;;7.72;80.30
46768;BME280;69007;48.978;18.066;2023-11-18T10:29:06;97911.41;;;7.68;82.92
46768;BME280;69007;48.978;18.066;2023-11-18T10:31:34;97913.56;;;7.54;82.10
46768;BME280;69007;48.978;18.066;2023-11-18T10:34:03;97932.16;;;7.50;84.52
46768;BME280;69007;48.978;18.066;2023-11-18T10:36:29;97896.56;;;7.06;84.62
46768;BME280;69007;48.978;18.066;2023-11-18T10:38:58;97946.44;;;7.22;86.38
46768;BME280;69007;48.978;18.066;2023-11-18T10:41:25;97935.59;;;6.87;86.00
46768;BME280;69007;48.978;18.066;2023-11-18T10:44:11;97962.72;;;6.26;90.63
46768;BME280;69007;48.978;18.066;2023-11-18T10:47:00;97967.19;;;5.28;98.08
46768;BME280;69007;48.978;18.066;2023-11-18T10:49:27;97975.75;;;4.74;100.00
46768;BME280;69007;48.978;18.066;2023-11-18T10:51:53;97965.09;;;4.29;100.00
46768;BME280;69007;48.978;18.066;2023-11-18T10:54:21;97972.38;;;4.22;100.00
46768;BME280;69007;48.978;18.066;2023-11-18T10:56:50;97972.16;;;4.23;100.00
46768;BME280;69007;48.978;18.066;2023-11-18T10:59:16;97945.41;;;3.90;100.00
46768;BME280;69007;48.978;18.066;2023-11-18T11:01:42;97988.53;;;4.22;100.00
46768;BME280;69007;48.978;18.066;2023-11-18T11:04:12;97972.84;;;4.12;100.00
46768;BME280;69007;48.978;18.066;2023-11-18T11:06:42;97967.38;;;4.25;100.00
46768;BME280;69007;48.978;18.066;2023-11-18T11:09:08;97959.28;;;4.25;100.00
46768;BME280;69007;48.978;18.066;2023-11-18T11:11:48;97969.84;;;4.27;100.00
46768;BME280;69007;48.978;18.066;2023-11-18T11:14:15;97974.00;;;4.30;100.00
46768;BME280;69007;48.978;18.066;2023-11-18T11:16:47;97969.81;;;4.34;100.00
46768;BME280;69007;48.978;18.066;2023-11-18T11:22:04;97979.41;;;4.87;97.93
46768;BME280;69007;48.978;18.066;2023-11-18T11:24:40;97984.00;;;5.05;99.52
46768;BME280;69007;48.978;18.066;2023-11-18T11:27:33;97980.09;;;5.44;98.00
46768;BME280;69007;48.978;18.066;2023-11-18T11:30:22;97987.94;;;5.27;94.52
46768;BME280;69007;48.978;18.066;2023-11-18T11:32:53;97977.72;;;5.11;97.75
46768;BME280;69007;48.978;18.066;2023-11-18T11:35:30;97966.91;;;4.92;97.11
46768;BME280;69007;48.978;18.066;2023-11-18T11:37:56;97962.94;;;4.70;97.93
46768;BME280;69007;48.978;18.066;2023-11-18T11:40:30;97986.31;;;4.51;98.09
46768;BME280;69007;48.978;18.066;2023-11-18T11:42:56;97950.94;;;4.34;100.00
46768;BME280;69007;48.978;18.066;2023-11-18T11:45:23;97980.53;;;4.47;100.00
46768;BME280;69007;48.978;18.066;2023-11-18T11:47:54;97947.06;;;4.30;100.00
46768;BME280;69007;48.978;18.066;2023-11-18T11:53:30;97956.78;;;4.63;99.15
46768;BME280;69007;48.978;18.066;2023-11-18T11:56:01;97955.44;;;4.72;97.13
46768;BME280;69007;48.978;18.066;2023-11-18T11:58:37;97952.44;;;4.30;96.70
46768;BME280;69007;48.978;18.066;2023-11-18T12:01:24;97978.25;;;4.44;94.39
46768;BME280;69007;48.978;18.066;2023-11-18T12:03:56;98002.31;;;4.46;94.74
46768;BME280;69007;48.978;18.066;2023-11-18T12:06:23;97992.25;;;4.28;94.78
46768;BME280;69007;48.978;18.066;2023-11-18T12:08:52;97972.72;;;4.39;93.48
46768;BME280;69007;48.978;18.066;2023-11-18T12:11:19;97990.75;;;4.64;93.19
46768;BME280;69007;48.978;18.066;2023-11-18T12:14:04;97958.06;;;4.85;91.24
46768;BME280;69007;48.978;18.066;2023-11-18T12:17:07;98001.88;;;5.24;89.14
46768;BME280;69007;48.978;18.066;2023-11-18T12:19:39;97985.53;;;5.19;88.45
46768;BME280;69007;48.978;18.066;2023-11-18T12:22:20;97991.31;;;5.23;86.49
46768;BME280;69007;48.978;18.066;2023-11-18T12:27:56;98000.44;;;5.47;85.06
46768;BME280;69007;48.978;18.066;2023-11-18T12:33:00;98010.19;;;5.48;84.79
46768;BME280;69007;48.978;18.066;2023-11-18T12:35:42;98010.53;;;5.33;85.73
46768;BME280;69007;48.978;18.066;2023-11-18T12:44:16;98028.09;;;5.61;85.13
46768;BME280;69007;48.978;18.066;2023-11-18T12:47:02;98022.25;;;5.64;85.62
46768;BME280;69007;48.978;18.066;2023-11-18T12:49:43;98020.84;;;5.61;84.29
46768;BME280;69007;48.978;18.066;2023-11-18T12:52:10;97997.88;;;5.52;85.81
46768;BME280;69007;48.978;18.066;2023-11-18T12:54:37;98026.16;;;5.68;85.74
46768;BME280;69007;48.978;18.066;2023-11-18T12:57:03;98021.06;;;5.60;86.03
46768;BME280;69007;48.978;18.066;2023-11-18T12:59:35;98017.28;;;5.61;85.13
46768;BME280;69007;48.978;18.066;2023-11-18T13:02:06;98013.31;;;5.45;85.77
46768;BME280;69007;48.978;18.066;2023-11-18T13:04:32;98019.16;;;5.42;85.52
46768;BME280;69007;48.978;18.066;2023-11-18T13:06:59;97979.53;;;5.17;88.15
46768;BME280;69007;48.978;18.066;2023-11-18T13:09:26;98017.84;;;5.26;86.20
46768;BME280;69007;48.978;18.066;2023-11-18T13:11:56;98019.25;;;5.10;86.33
46768;BME280;69007;48.978;18.066;2023-11-18T13:14:28;98028.97;;;5.11;88.08
46768;BME280;69007;48.978;18.066;2023-11-18T13:16:56;98059.44;;;5.18;88.32
46768;BME280;69007;48.978;18.066;2023-11-18T13:19:28;98048.66;;;5.18;87.83
46768;BME280;69007;48.978;18.066;2023-11-18T13:22:13;98042.53;;;5.04;88.14
46768;BME280;69007;48.978;18.066;2023-11-18T13:24:40;98043.69;;;5.15;89.03
46768;BME280;69007;48.978;18.066;2023-11-18T13:27:07;98053.16;;;4.99;88.21
46768;BME280;69007;48.978;18.066;2023-11-18T13:29:38;98057.28;;;5.02;88.97